Time;durP1;ratioP1;P1;durP2;ratioP2;P2;SDS_P1;SDS_P2;PMS_P1;PMS_P2;Temp;Humidity;BMP_temperature;BMP_pressure;BME280_temperature;BME280_humidity;BME280_pressure;Samples;Min_cycle;Max_cycle;Signal;HPM_P1;HPM_P2
2023/12/23 00:01:00;;;;;;;23.13;14.40;;;;;;;;;;5040354;28;19917;-87
2023/12/23 00:03:25;;;;;;;22.15;14.10;;;;;;;;;;5022618;28;20028;-86
2023/12/23 00:05:53;;;;;;;23.40;14.48;;;;;;;;;;5024062;28;20076;-86
2023/12/23 00:08:18;;;;;;;24.80;15.10;;;;;;;;;;5024164;28;20034;-86
2023/12/23 00:10:43;;;;;;;25.05;15.07;;;;;;;;;;5019449;28;20046;-88
2023/12/23 00:13:09;;;;;;;25.08;16.13;;;;;;;;;;5023833;28;20041;-87
2023/12/23 00:15:34;;;;;;;24.77;14.48;;;;;;;;;;4977325;28;20042;-87
2023/12/23 00:17:59;;;;;;;;;;;;;;;;;;5034032;28;20034;-87
2023/12/23 00:20:25;;;;;;;22.10;13.57;;;;;;;;;;5033104;28;20332;-88
2023/12/23 00:22:50;;;;;;;23.90;14.77;;;;;;;;;;5030782;28;20037;-87
2023/12/23 00:25:16;;;;;;;24.50;15.13;;;;;;;;;;5019408;28;20121;-87
2023/12/23 00:27:41;;;;;;;23.50;14.63;;;;;;;;;;5020579;28;20083;-87
2023/12/23 00:30:07;;;;;;;;;;;;;;;;;;5024502;28;20445;-88
2023/12/23 00:32:32;;;;;;;25.45;15.32;;;;;;;;;;5018690;28;19915;-87
2023/12/23 00:34:58;;;;;;;26.27;16.40;;;;;;;;;;4990164;28;20033;-85
2023/12/23 00:37:23;;;;;;;22.23;15.02;;;;;;;;;;5021192;28;20045;-86
2023/12/23 00:39:48;;;;;;;;;;;;;;;;;;5024425;28;20041;-87
2023/12/23 00:42:14;;;;;;;21.58;13.88;;;;;;;;;;5021798;28;19916;-87
2023/12/23 00:44:40;;;;;;;23.00;13.95;;;;;;;;;;5017304;28;20536;-87
2023/12/23 00:47:06;;;;;;;23.00;14.73;;;;;;;;;;5003587;28;20060;-87
2023/12/23 00:49:31;;;;;;;;;;;;;;;;;;5003384;28;20037;-86
2023/12/23 00:51:56;;;;;;;24.88;14.65;;;;;;;;;;5031801;28;19909;-87
2023/12/23 00:54:23;;;;;;;26.00;16.58;;;;;;;;;;5022493;28;20034;-87
2023/12/23 00:56:48;;;;;;;23.73;15.00;;;;;;;;;;5034718;28;20033;-87
2023/12/23 00:59:14;;;;;;;24.85;14.55;;;;;;;;;;5023732;28;20052;-87
2023/12/23 01:01:41;;;;;;;24.38;14.68;;;;;;;;;;5015321;28;20018;-87
2023/12/23 01:04:07;;;;;;;22.02;13.82;;;;;;;;;;5011354;28;20124;-87
2023/12/23 01:06:32;;;;;;;22.80;13.57;;;;;;;;;;5019585;28;20030;-86
2023/12/23 01:08:58;;;;;;;23.67;14.93;;;;;;;;;;5024196;28;20037;-87
2023/12/23 01:11:26;;;;;;;21.48;13.88;;;;;;;;;;5045627;28;20033;-87
2023/12/23 01:13:52;;;;;;;21.77;13.55;;;;;;;;;;5013492;28;20045;-87
2023/12/23 01:16:17;;;;;;;23.42;14.35;;;;;;;;;;5036284;28;20022;-87
2023/12/23 01:18:43;;;;;;;21.05;13.55;;;;;;;;;;5015380;28;20038;-87
2023/12/23 01:21:08;;;;;;;21.23;14.18;;;;;;;;;;4995533;28;20029;-87
2023/12/23 01:23:33;;;;;;;;;;;;;;;;;;5050356;28;20079;-87
2023/12/23 01:25:59;;;;;;;21.38;13.95;;;;;;;;;;5036415;28;19912;-87
2023/12/23 01:28:24;;;;;;;;;;;;;;;;;;5033931;28;20065;-87
2023/12/23 01:30:50;;;;;;;22.60;13.73;;;;;;;;;;5034882;28;19908;-86
2023/12/23 01:33:15;;;;;;;21.13;13.23;;;;;;;;;;5023406;28;20050;-87
2023/12/23 01:35:41;;;;;;;23.77;14.15;;;;;;;;;;5006057;28;20510;-87
2023/12/23 01:38:06;;;;;;;;;;;;;;;;;;5005420;28;20099;-87
2023/12/23 01:40:32;;;;;;;21.08;13.50;;;;;;;;;;5025745;28;19936;-87
2023/12/23 01:42:57;;;;;;;22.20;14.45;;;;;;;;;;5022170;28;20025;-86
2023/12/23 01:45:23;;;;;;;;;;;;;;;;;;5017194;28;20061;-86
2023/12/23 01:47:48;;;;;;;19.60;12.27;;;;;;;;;;5016792;28;19956;-87
2023/12/23 01:50:14;;;;;;;;;;;;;;;;;;5019515;28;20128;-87
2023/12/23 01:52:39;;;;;;;21.00;12.82;;;;;;;;;;5029420;28;19923;-86
2023/12/23 01:55:05;;;;;;;23.05;13.93;;;;;;;;;;5007335;28;20045;-87
2023/12/23 01:57:32;;;;;;;20.80;13.15;;;;;;;;;;5022060;28;20096;-86
2023/12/23 01:59:57;;;;;;;20.70;13.25;;;;;;;;;;4995556;28;20045;-87
2023/12/23 02:02:22;;;;;;;;;;;;;;;;;;4999979;28;20033;-87
2023/12/23 02:04:48;;;;;;;21.35;12.98;;;;;;;;;;5031722;28;19896;-85
2023/12/23 02:07:14;;;;;;;;;;;;;;;;;;4990271;28;20021;-87
2023/12/23 02:09:39;;;;;;;21.02;14.18;;;;;;;;;;5022743;28;20074;-87
2023/12/23 02:12:11;;;;;;;19.98;12.70;;;;;;;;;;5003028;28;20033;-87
2023/12/23 02:14:40;;;;;;;22.50;13.50;;;;;;;;;;5020991;28;20107;-87
2023/12/23 02:17:06;;;;;;;20.48;12.73;;;;;;;;;;4987569;28;20034;-87
2023/12/23 02:19:32;;;;;;;20.08;12.95;;;;;;;;;;4994026;28;20048;-87
2023/12/23 02:21:57;;;;;;;21.02;12.98;;;;;;;;;;5022298;28;20103;-87
2023/12/23 02:24:23;;;;;;;20.40;13.57;;;;;;;;;;4988731;28;20113;-86
2023/12/23 02:26:49;;;;;;;21.45;13.18;;;;;;;;;;5006289;28;20088;-86
2023/12/23 02:29:15;;;;;;;19.13;12.48;;;;;;;;;;5002348;28;20033;-86
2023/12/23 02:31:40;;;;;;;21.52;13.68;;;;;;;;;;5027659;28;20024;-86
2023/12/23 02:34:06;;;;;;;;;;;;;;;;;;5018440;28;20045;-87
2023/12/23 02:36:31;;;;;;;19.52;12.07;;;;;;;;;;5030412;28;19909;-87
2023/12/23 02:38:57;;;;;;;18.15;11.80;;;;;;;;;;5017962;28;20030;-87
2023/12/23 02:41:23;;;;;;;20.17;12.70;;;;;;;;;;5027131;28;20104;-87
2023/12/23 02:43:48;;;;;;;17.92;11.88;;;;;;;;;;5026312;28;20184;-87
2023/12/23 02:46:14;;;;;;;20.63;12.98;;;;;;;;;;5044580;28;20036;-87
2023/12/23 02:48:39;;;;;;;;;;;;;;;;;;5042961;28;20103;-87
2023/12/23 02:51:05;;;;;;;20.42;12.23;;;;;;;;;;5044593;28;19919;-86
2023/12/23 02:53:30;;;;;;;17.77;11.88;;;;;;;;;;5008407;28;20456;-87
2023/12/23 02:55:55;;;;;;;18.65;12.75;;;;;;;;;;5044071;28;20116;-87
2023/12/23 02:58:21;;;;;;;18.90;11.93;;;;;;;;;;5052156;28;20483;-87
2023/12/23 03:00:46;;;;;;;;;;;;;;;;;;5041779;28;20036;-87
2023/12/23 03:03:12;;;;;;;17.67;12.13;;;;;;;;;;5041398;28;20004;-86
2023/12/23 03:05:37;;;;;;;;;;;;;;;;;;4990468;28;20022;-87
2023/12/23 03:08:03;;;;;;;19.80;11.32;;;;;;;;;;5003774;28;19913;-87
2023/12/23 03:10:28;;;;;;;;;;;;;;;;;;5007237;28;20508;-87
2023/12/23 03:12:53;;;;;;;17.52;11.05;;;;;;;;;;5042479;28;19920;-87
2023/12/23 03:15:19;;;;;;;17.60;11.32;;;;;;;;;;5022893;28;20503;-88
2023/12/23 03:17:45;;;;;;;15.93;10.65;;;;;;;;;;5013262;28;20619;-87
2023/12/23 03:20:10;;;;;;;14.88;10.45;;;;;;;;;;5007399;28;20025;-87
2023/12/23 03:22:36;;;;;;;16.95;10.65;;;;;;;;;;5025204;28;20080;-86
2023/12/23 03:25:02;;;;;;;15.75;10.45;;;;;;;;;;5031299;28;20029;-87
2023/12/23 03:27:28;;;;;;;15.75;10.70;;;;;;;;;;5039631;28;20033;-86
2023/12/23 03:29:53;;;;;;;16.50;11.15;;;;;;;;;;5023563;28;20017;-86
2023/12/23 03:32:19;;;;;;;;;;;;;;;;;;5010766;28;20419;-87
2023/12/23 03:34:44;;;;;;;16.83;10.02;;;;;;;;;;5053344;28;20421;-87
2023/12/23 03:37:10;;;;;;;15.50;10.25;;;;;;;;;;5005958;28;20038;-87
2023/12/23 03:39:35;;;;;;;;;;;;;;;;;;5041932;28;20037;-87
2023/12/23 03:42:01;;;;;;;17.88;11.13;;;;;;;;;;5032989;28;19912;-86
2023/12/23 03:44:26;;;;;;;16.02;10.18;;;;;;;;;;5014716;28;20116;-86
2023/12/23 03:46:52;;;;;;;;;;;;;;;;;;5016784;28;20063;-86
2023/12/23 03:49:17;;;;;;;16.13;10.30;;;;;;;;;;5023386;28;19908;-87
2023/12/23 03:51:43;;;;;;;14.55;9.75;;;;;;;;;;5003903;28;20038;-86
2023/12/23 03:54:08;;;;;;;;;;;;;;;;;;5041299;28;20399;-86
2023/12/23 03:56:33;;;;;;;14.63;9.80;;;;;;;;;;5036584;28;19920;-87
2023/12/23 03:58:59;;;;;;;13.70;9.13;;;;;;;;;;4998456;28;20029;-86
2023/12/23 04:01:24;;;;;;;;;;;;;;;;;;5027886;28;20037;-86
2023/12/23 04:03:50;;;;;;;14.88;9.38;;;;;;;;;;5025461;28;19909;-86
2023/12/23 04:06:15;;;;;;;14.35;9.65;;;;;;;;;;5059877;28;20040;-86
2023/12/23 04:08:41;;;;;;;;;;;;;;;;;;5027083;28;20512;-86
2023/12/23 04:11:07;;;;;;;14.07;9.02;;;;;;;;;;5013705;28;19936;-87
2023/12/23 04:13:33;;;;;;;13.50;8.73;;;;;;;;;;5005137;28;20033;-87
2023/12/23 04:16:01;;;;;;;13.85;9.65;;;;;;;;;;5007674;28;20037;-86
2023/12/23 04:18:27;;;;;;;14.73;9.23;;;;;;;;;;5016314;28;20389;-86
2023/12/23 04:20:53;;;;;;;14.15;9.23;;;;;;;;;;5015675;28;20042;-87
2023/12/23 04:23:19;;;;;;;13.82;9.32;;;;;;;;;;5017143;28;20044;-87
2023/12/23 04:25:44;;;;;;;;;;;;;;;;;;5005636;28;20056;-87
2023/12/23 04:28:11;;;;;;;12.38;7.93;;;;;;;;;;5038025;28;20280;-87
2023/12/23 04:30:37;;;;;;;13.48;8.73;;;;;;;;;;5027441;28;20037;-87
2023/12/23 04:33:03;;;;;;;11.57;7.88;;;;;;;;;;5000081;28;20405;-86
2023/12/23 04:35:28;;;;;;;12.45;8.05;;;;;;;;;;5016476;28;20046;-87
2023/12/23 04:37:55;;;;;;;;;;;;;;;;;;5002184;28;20038;-87
2023/12/23 04:40:21;;;;;;;12.00;7.53;;;;;;;;;;5022385;28;19921;-87
2023/12/23 04:42:48;;;;;;;10.45;7.55;;;;;;;;;;4996534;28;20106;-88
2023/12/23 04:45:14;;;;;;;;;;;;;;;;;;5014948;28;20064;-86
2023/12/23 04:47:39;;;;;;;11.68;8.10;;;;;;;;;;5043033;28;20104;-86
2023/12/23 04:50:05;;;;;;;;;;;;;;;;;;5013416;28;20095;-86
2023/12/23 04:52:30;;;;;;;12.63;7.70;;;;;;;;;;5027275;28;19909;-87
2023/12/23 04:54:58;;;;;;;11.25;7.80;;;;;;;;;;5018802;28;20040;-87
2023/12/23 04:57:23;;;;;;;11.63;8.18;;;;;;;;;;5022351;28;20043;-86
2023/12/23 04:59:49;;;;;;;;;;;;;;;;;;5041020;28;20037;-86
2023/12/23 05:02:14;;;;;;;10.77;7.68;;;;;;;;;;5013931;28;19901;-86
2023/12/23 05:04:42;;;;;;;10.82;7.95;;;;;;;;;;5008868;28;20060;-85
2023/12/23 05:07:08;;;;;;;11.70;8.05;;;;;;;;;;5055321;28;20068;-87
2023/12/23 05:09:34;;;;;;;;;;;;;;;;;;5044811;28;20053;-87
2023/12/23 05:12:00;;;;;;;10.67;7.43;;;;;;;;;;5047008;28;19917;-87
2023/12/23 05:14:25;;;;;;;;;;;;;;;;;;5037095;28;20038;-86
2023/12/23 05:16:51;;;;;;;10.65;7.45;;;;;;;;;;5025068;28;19928;-87
2023/12/23 05:19:16;;;;;;;11.57;7.65;;;;;;;;;;5051687;28;20041;-87
2023/12/23 05:21:41;;;;;;;;;;;;;;;;;;5028942;28;20025;-87
2023/12/23 05:24:07;;;;;;;9.30;6.60;;;;;;;;;;5050571;28;19920;-87
2023/12/23 05:26:32;;;;;;;12.07;8.25;;;;;;;;;;5037697;28;20025;-87
2023/12/23 05:28:58;;;;;;;10.50;6.97;;;;;;;;;;5016633;28;20130;-86
2023/12/23 05:31:23;;;;;;;10.10;6.95;;;;;;;;;;5027009;28;20675;-87
2023/12/23 05:33:52;;;;;;;8.48;6.10;;;;;;;;;;5012736;28;20061;-87
2023/12/23 05:36:18;;;;;;;8.63;6.03;;;;;;;;;;5038975;28;20010;-86
2023/12/23 05:38:43;;;;;;;8.10;5.38;;;;;;;;;;4993398;28;20129;-87
2023/12/23 05:41:09;;;;;;;5.88;4.20;;;;;;;;;;5019519;28;20037;-88
2023/12/23 05:43:34;;;;;;;;;;;;;;;;;;5033780;28;20041;-88
2023/12/23 05:46:00;;;;;;;5.78;3.92;;;;;;;;;;5031660;28;19913;-87
2023/12/23 05:48:51;;;;;;;6.68;4.35;;;;;;;;;;5015124;28;20044;-87
2023/12/23 05:51:17;;;;;;;;;;;;;;;;;;5037657;28;20487;-87
2023/12/23 05:53:42;;;;;;;7.30;5.07;;;;;;;;;;5042206;28;19912;-87
2023/12/23 05:56:08;;;;;;;8.15;5.88;;;;;;;;;;5003413;28;20092;-87
2023/12/23 05:58:33;;;;;;;7.70;5.50;;;;;;;;;;5023382;28;20041;-86
2023/12/23 06:00:59;;;;;;;;;;;;;;;;;;5022131;28;20439;-86
2023/12/23 06:03:24;;;;;;;7.40;4.90;;;;;;;;;;5009062;28;19981;-86
2023/12/23 06:05:50;;;;;;;6.88;5.05;;;;;;;;;;5014652;28;20034;-87
2023/12/23 06:08:15;;;;;;;6.22;4.32;;;;;;;;;;5023602;28;20044;-87
2023/12/23 06:10:41;;;;;;;;;;;;;;;;;;5034663;28;20058;-87
2023/12/23 06:13:06;;;;;;;6.47;4.22;;;;;;;;;;5012138;28;19905;-87
2023/12/23 06:15:32;;;;;;;8.02;4.30;;;;;;;;;;5019166;28;20037;-87
2023/12/23 06:17:57;;;;;;;5.90;4.10;;;;;;;;;;5029102;28;20037;-87
2023/12/23 06:20:22;;;;;;;;;;;;;;;;;;5027676;28;20037;-87
2023/12/23 06:22:48;;;;;;;4.55;3.08;;;;;;;;;;5039711;28;19909;-88
2023/12/23 06:25:13;;;;;;;5.85;3.50;;;;;;;;;;5029121;28;20442;-87
2023/12/23 06:27:39;;;;;;;5.22;3.65;;;;;;;;;;5010977;28;20040;-86
2023/12/23 06:30:04;;;;;;;;;;;;;;;;;;5005736;28;20684;-87
2023/12/23 06:32:32;;;;;;;5.20;3.65;;;;;;;;;;5026138;28;19916;-87
2023/12/23 06:34:57;;;;;;;5.50;3.67;;;;;;;;;;5033679;28;20036;-87
2023/12/23 06:37:23;;;;;;;5.93;3.88;;;;;;;;;;5028872;28;20029;-87
2023/12/23 06:39:48;;;;;;;5.22;3.80;;;;;;;;;;5036729;28;20025;-87
2023/12/23 06:42:14;;;;;;;6.15;4.38;;;;;;;;;;5037411;28;20037;-87
2023/12/23 06:44:39;;;;;;;5.53;3.65;;;;;;;;;;5032732;28;20032;-88
2023/12/23 06:47:05;;;;;;;6.43;4.32;;;;;;;;;;5019126;28;20038;-87
2023/12/23 06:49:31;;;;;;;6.78;4.43;;;;;;;;;;5030335;28;20504;-88
2023/12/23 06:51:56;;;;;;;5.18;3.70;;;;;;;;;;5015128;28;20034;-87
2023/12/23 06:54:22;;;;;;;5.15;3.50;;;;;;;;;;5007784;28;20037;-87
2023/12/23 06:56:47;;;;;;;4.80;3.50;;;;;;;;;;5018542;28;20511;-87
2023/12/23 06:59:13;;;;;;;;;;;;;;;;;;5037244;28;20089;-87
2023/12/23 07:01:39;;;;;;;5.65;3.40;;;;;;;;;;5020407;28;20494;-87
2023/12/23 07:04:04;;;;;;;5.30;3.50;;;;;;;;;;5020493;28;20076;-88
2023/12/23 07:06:30;;;;;;;;;;;;;;;;;;5040679;28;20033;-87
2023/12/23 07:08:55;;;;;;;6.00;3.50;;;;;;;;;;5026108;28;19963;-88
2023/12/23 07:11:24;;;;;;;6.65;3.47;;;;;;;;;;5025739;28;20445;-87
2023/12/23 07:13:50;;;;;;;4.93;3.63;;;;;;;;;;5037620;28;20052;-87
2023/12/23 07:16:16;;;;;;;4.90;3.33;;;;;;;;;;5016836;28;20053;-87
2023/12/23 07:18:42;;;;;;;4.32;3.20;;;;;;;;;;5024154;28;20012;-87
2023/12/23 07:21:07;;;;;;;5.00;3.75;;;;;;;;;;5006770;28;20561;-87
2023/12/23 07:23:33;;;;;;;4.85;3.20;;;;;;;;;;5023495;28;20033;-87
2023/12/23 07:26:02;;;;;;;4.28;3.00;;;;;;;;;;5016845;28;20040;-88
2023/12/23 07:28:30;;;;;;;4.25;2.92;;;;;;;;;;5033568;28;20029;-88
2023/12/23 07:30:56;;;;;;;4.47;3.08;;;;;;;;;;5033270;28;20044;-87
2023/12/23 07:33:21;;;;;;;5.72;2.78;;;;;;;;;;5021980;28;20065;-88
2023/12/23 07:35:50;;;;;;;3.80;2.70;;;;;;;;;;5016590;28;20053;-88
2023/12/23 07:38:25;;;;;;;;;;;;;;;;;;;;;
2023/12/23 07:40:51;;;;;;;3.92;2.78;;;;;;;;;;5009202;28;20040;-87
2023/12/23 07:43:16;;;;;;;;;;;;;;;;;;5002569;28;20077;-87
2023/12/23 07:45:42;;;;;;;4.75;3.10;;;;;;;;;;5032465;28;19913;-89
2023/12/23 07:48:07;;;;;;;5.82;3.50;;;;;;;;;;5029737;28;20514;-87
2023/12/23 07:50:33;;;;;;;3.80;2.90;;;;;;;;;;5023974;28;20487;-89
2023/12/23 07:52:59;;;;;;;4.03;3.00;;;;;;;;;;5009190;28;20087;-88
2023/12/23 07:55:24;;;;;;;;;;;;;;;;;;5025038;28;20060;-87
2023/12/23 07:57:50;;;;;;;4.13;2.90;;;;;;;;;;5023926;28;19909;-91
2023/12/23 08:00:15;;;;;;;;;;;;;;;;;;5012529;28;20025;-92
2023/12/23 08:02:41;;;;;;;4.75;2.67;;;;;;;;;;5045923;28;19909;-92
2023/12/23 08:05:06;;;;;;;;;;;;;;;;;;4999950;28;20029;-90
2023/12/23 08:07:32;;;;;;;4.40;2.95;;;;;;;;;;5033763;28;19909;-90
2023/12/23 08:09:58;;;;;;;;;;;;;;;;;;4986897;28;20148;-90
2023/12/23 08:12:23;;;;;;;3.72;2.85;;;;;;;;;;5024192;28;19921;-88
2023/12/23 08:14:50;;;;;;;5.00;2.95;;;;;;;;;;4986035;28;20040;-87
2023/12/23 08:17:15;;;;;;;;;;;;;;;;;;5017737;28;20036;-88
2023/12/23 08:19:40;;;;;;;4.18;2.58;;;;;;;;;;5035465;28;19917;-87
2023/12/23 08:22:06;;;;;;;5.30;2.95;;;;;;;;;;5016987;28;20053;-88
2023/12/23 08:24:32;;;;;;;3.67;2.70;;;;;;;;;;4996499;28;20069;-87
2023/12/23 08:26:58;;;;;;;3.92;3.00;;;;;;;;;;5018827;28;20024;-89
2023/12/23 08:29:25;;;;;;;9.13;4.97;;;;;;;;;;4988121;28;20129;-90
2023/12/23 08:31:50;;;;;;;5.45;3.42;;;;;;;;;;4992351;28;20029;-89
2023/12/23 08:34:16;;;;;;;4.50;2.97;;;;;;;;;;4990217;28;20025;-86
2023/12/23 08:36:41;;;;;;;;;;;;;;;;;;5019001;28;20506;-87
2023/12/23 08:39:07;;;;;;;4.57;3.10;;;;;;;;;;5016794;28;19932;-90
2023/12/23 08:41:36;;;;;;;4.18;2.80;;;;;;;;;;5000715;28;20141;-88
2023/12/23 08:44:02;;;;;;;5.35;2.90;;;;;;;;;;5028038;28;20458;-89
2023/12/23 08:46:27;;;;;;;;;;;;;;;;;;4976038;28;20494;-90
2023/12/23 08:48:53;;;;;;;6.72;3.03;;;;;;;;;;5009688;28;19913;-87
2023/12/23 08:51:18;;;;;;;7.07;2.78;;;;;;;;;;5000758;28;20021;-87
2023/12/23 08:53:43;;;;;;;;;;;;;;;;;;4981290;28;20042;-88
2023/12/23 08:56:09;;;;;;;4.65;2.20;;;;;;;;;;5017310;28;19909;-88
2023/12/23 08:58:34;;;;;;;3.47;2.15;;;;;;;;;;4984143;28;20039;-86
2023/12/23 09:01:00;;;;;;;3.42;2.33;;;;;;;;;;5000054;28;20079;-88
2023/12/23 09:03:25;;;;;;;;;;;;;;;;;;5015831;28;20420;-86
2023/12/23 09:05:51;;;;;;;11.48;3.47;;;;;;;;;;5003917;28;19921;-87
2023/12/23 09:08:17;;;;;;;;;;;;;;;;;;4989206;28;20038;-88
2023/12/23 09:10:42;;;;;;;4.35;3.00;;;;;;;;;;5017577;28;19925;-87
2023/12/23 09:13:08;;;;;;;4.95;2.80;;;;;;;;;;5005704;28;20030;-87
2023/12/23 09:15:34;;;;;;;4.60;2.83;;;;;;;;;;4972045;28;20076;-87
2023/12/23 09:17:59;;;;;;;5.80;3.05;;;;;;;;;;5015491;28;20059;-88
2023/12/23 09:20:24;;;;;;;;;;;;;;;;;;5002362;28;20491;-87
2023/12/23 09:22:50;;;;;;;4.63;2.90;;;;;;;;;;5017134;28;20002;-88
2023/12/23 09:25:15;;;;;;;;;;;;;;;;;;5033840;28;20017;-88
2023/12/23 09:27:42;;;;;;;5.75;3.35;;;;;;;;;;5025921;28;19913;-88
2023/12/23 09:30:08;;;;;;;6.32;4.20;;;;;;;;;;5034216;28;20091;-89
2023/12/23 09:32:33;;;;;;;8.88;3.45;;;;;;;;;;5016201;28;20030;-89
2023/12/23 09:34:59;;;;;;;8.63;3.55;;;;;;;;;;5014974;28;20035;-89
2023/12/23 09:37:24;;;;;;;;;;;;;;;;;;5011115;28;20068;-88
2023/12/23 09:39:49;;;;;;;7.88;3.58;;;;;;;;;;5011273;28;19913;-87
2023/12/23 09:42:15;;;;;;;10.75;3.70;;;;;;;;;;5000060;28;20030;-88
2023/12/23 09:44:40;;;;;;;5.88;3.50;;;;;;;;;;4989893;28;20049;-88
2023/12/23 09:47:06;;;;;;;7.45;3.55;;;;;;;;;;5028511;28;20411;-89
2023/12/23 09:49:31;;;;;;;;;;;;;;;;;;5030600;28;20045;-88
2023/12/23 09:51:57;;;;;;;5.30;3.10;;;;;;;;;;5011714;28;19914;-89
2023/12/23 09:54:23;;;;;;;5.20;2.92;;;;;;;;;;4996242;28;20109;-88
2023/12/23 09:56:48;;;;;;;4.97;2.85;;;;;;;;;;5015836;28;20443;-88
2023/12/23 09:59:14;;;;;;;4.90;3.17;;;;;;;;;;5028442;28;20033;-89
2023/12/23 10:01:39;;;;;;;5.80;2.70;;;;;;;;;;5015794;28;20045;-89
2023/12/23 10:04:05;;;;;;;7.65;3.30;;;;;;;;;;5040945;28;20082;-89
2023/12/23 10:06:30;;;;;;;6.22;3.28;;;;;;;;;;5029385;28;20040;-88
2023/12/23 10:08:56;;;;;;;4.97;2.60;;;;;;;;;;5034375;28;21454;-89
2023/12/23 10:11:23;;;;;;;8.40;3.30;;;;;;;;;;5002094;28;20089;-89
2023/12/23 10:13:49;;;;;;;6.22;3.30;;;;;;;;;;5021029;28;20037;-88
2023/12/23 10:16:14;;;;;;;5.32;3.00;;;;;;;;;;4994340;28;20037;-88
2023/12/23 10:18:40;;;;;;;5.38;2.38;;;;;;;;;;5018075;28;20064;-89
2023/12/23 10:21:06;;;;;;;;;;;;;;;;;;5036151;28;20033;-87
2023/12/23 10:23:32;;;;;;;5.60;3.10;;;;;;;;;;5034465;28;19995;-88
2023/12/23 10:25:58;;;;;;;4.40;2.60;;;;;;;;;;5010113;28;20045;-87
2023/12/23 10:28:23;;;;;;;5.88;2.70;;;;;;;;;;5017902;28;20442;-90
2023/12/23 10:30:49;;;;;;;;;;;;;;;;;;5015912;28;20037;-87
2023/12/23 10:33:15;;;;;;;7.13;2.90;;;;;;;;;;5034147;28;19943;-88
2023/12/23 10:35:40;;;;;;;;;;;;;;;;;;5003663;28;20119;-87
2023/12/23 10:38:05;;;;;;;3.95;2.35;;;;;;;;;;5022253;28;19909;-86
2023/12/23 10:40:31;;;;;;;9.25;2.95;;;;;;;;;;5018306;28;20045;-88
2023/12/23 10:42:58;;;;;;;7.32;2.85;;;;;;;;;;4997863;28;20092;-86
2023/12/23 10:45:23;;;;;;;6.07;3.30;;;;;;;;;;5017887;28;20040;-88
2023/12/23 10:47:49;;;;;;;6.07;2.92;;;;;;;;;;4988780;28;20424;-87
2023/12/23 10:50:15;;;;;;;6.18;2.80;;;;;;;;;;5000275;28;20415;-87
2023/12/23 10:52:40;;;;;;;5.40;2.58;;;;;;;;;;5005126;28;20080;-89
2023/12/23 10:55:05;;;;;;;;;;;;;;;;;;5003470;28;20037;-87
2023/12/23 10:57:31;;;;;;;7.30;2.85;;;;;;;;;;5023785;28;20433;-89
2023/12/23 10:59:56;;;;;;;8.18;2.70;;;;;;;;;;5002107;28;20052;-87
2023/12/23 11:02:22;;;;;;;;;;;;;;;;;;5021550;28;20041;-87
2023/12/23 11:04:48;;;;;;;4.55;2.60;;;;;;;;;;5018728;28;19913;-87
2023/12/23 11:07:13;;;;;;;;;;;;;;;;;;5019991;28;20017;-88
2023/12/23 11:09:39;;;;;;;6.18;2.97;;;;;;;;;;5012029;28;19944;-89
2023/12/23 11:12:05;;;;;;;7.22;3.08;;;;;;;;;;5015036;28;20097;-89
2023/12/23 11:14:31;;;;;;;6.22;2.55;;;;;;;;;;5011466;28;20041;-89
2023/12/23 11:16:57;;;;;;;4.32;2.30;;;;;;;;;;5013187;28;20036;-89
2023/12/23 11:19:22;;;;;;;;;;;;;;;;;;5021443;28;20037;-88
2023/12/23 11:21:48;;;;;;;5.45;2.70;;;;;;;;;;5018404;28;19915;-88
2023/12/23 11:24:14;;;;;;;;;;;;;;;;;;4989005;28;20034;-88
2023/12/23 11:26:40;;;;;;;7.97;3.08;;;;;;;;;;5018351;28;20376;-88
2023/12/23 11:29:05;;;;;;;;;;;;;;;;;;5017424;28;20419;-88
2023/12/23 11:31:31;;;;;;;7.95;2.80;;;;;;;;;;5038163;28;19909;-86
2023/12/23 11:33:56;;;;;;;;;;;;;;;;;;5020242;28;20038;-90
2023/12/23 11:36:23;;;;;;;11.98;4.00;;;;;;;;;;5015724;28;19909;-90
2023/12/23 11:38:50;;;;;;;6.78;3.40;;;;;;;;;;5016834;28;20437;-91
2023/12/23 11:41:16;;;;;;;8.45;3.60;;;;;;;;;;5016905;28;20040;-88
2023/12/23 11:43:41;;;;;;;;;;;;;;;;;;5000820;28;20030;-88
2023/12/23 11:46:07;;;;;;;10.43;3.55;;;;;;;;;;5033443;28;19909;-88
2023/12/23 11:48:32;;;;;;;9.45;3.85;;;;;;;;;;5000180;28;20079;-89
2023/12/23 11:50:57;;;;;;;;;;;;;;;;;;5017855;28;20026;-86
2023/12/23 11:53:23;;;;;;;6.65;3.30;;;;;;;;;;5007367;28;20383;-88
2023/12/23 11:55:48;;;;;;;7.97;3.92;;;;;;;;;;5034797;28;20049;-89
2023/12/23 11:58:16;;;;;;;5.45;2.83;;;;;;;;;;4997251;28;20037;-89
2023/12/23 12:00:42;;;;;;;8.68;3.30;;;;;;;;;;5017656;28;20025;-87
2023/12/23 12:03:08;;;;;;;;;;;;;;;;;;5007295;28;20026;-88
2023/12/23 12:05:33;;;;;;;7.82;3.05;;;;;;;;;;5024361;28;19913;-89
2023/12/23 12:07:59;;;;;;;7.85;3.60;;;;;;;;;;5010791;28;20041;-89
2023/12/23 12:10:24;;;;;;;;;;;;;;;;;;5013328;28;20061;-89
2023/12/23 12:12:50;;;;;;;6.50;3.10;;;;;;;;;;5008482;28;19916;-88
2023/12/23 12:15:16;;;;;;;8.18;3.28;;;;;;;;;;5017705;28;20034;-88
2023/12/23 12:18:06;;;;;;;8.77;2.95;;;;;;;;;;5027539;28;20523;-88
2023/12/23 12:20:32;;;;;;;5.13;2.83;;;;;;;;;;5017272;28;20033;-89
2023/12/23 12:22:57;;;;;;;;;;;;;;;;;;4995668;28;20488;-88
2023/12/23 12:25:25;;;;;;;8.85;4.10;;;;;;;;;;5014605;28;20411;-88
2023/12/23 12:27:51;;;;;;;8.00;2.92;;;;;;;;;;5016835;28;20028;-87
2023/12/23 12:30:16;;;;;;;7.60;3.30;;;;;;;;;;5016382;28;20037;-87
2023/12/23 12:32:45;;;;;;;4.65;2.95;;;;;;;;;;5033531;28;20064;-88
2023/12/23 12:35:11;;;;;;;7.53;3.03;;;;;;;;;;5014739;28;20028;-88
2023/12/23 12:37:37;;;;;;;5.63;2.60;;;;;;;;;;5030164;28;20029;-89
2023/12/23 12:40:03;;;;;;;8.38;3.60;;;;;;;;;;5016307;28;20063;-87
2023/12/23 12:42:28;;;;;;;9.77;3.55;;;;;;;;;;5015929;28;20500;-88
2023/12/23 12:44:54;;;;;;;;;;;;;;;;;;4996550;28;20061;-88
2023/12/23 12:47:20;;;;;;;8.68;2.95;;;;;;;;;;5025586;28;19935;-88
2023/12/23 12:49:45;;;;;;;;;;;;;;;;;;4997420;28;20041;-88
2023/12/23 12:52:10;;;;;;;8.55;3.45;;;;;;;;;;5013215;28;19916;-89
2023/12/23 12:54:36;;;;;;;9.40;4.13;;;;;;;;;;4999796;28;20076;-89
2023/12/23 12:57:02;;;;;;;7.60;3.70;;;;;;;;;;4980703;28;20025;-89
2023/12/23 12:59:28;;;;;;;;;;;;;;;;;;5008097;28;20155;-87
2023/12/23 13:01:53;;;;;;;8.52;3.95;;;;;;;;;;5015552;28;20459;-89
2023/12/23 13:04:19;;;;;;;8.27;3.90;;;;;;;;;;5015310;28;20064;-88
2023/12/23 13:06:44;;;;;;;10.52;4.30;;;;;;;;;;5033212;28;20025;-88
2023/12/23 13:09:10;;;;;;;10.52;4.60;;;;;;;;;;4998773;28;20041;-89
2023/12/23 13:11:35;;;;;;;8.85;4.22;;;;;;;;;;5017222;28;20045;-88
2023/12/23 13:14:01;;;;;;;;;;;;;;;;;;5006169;28;20021;-89
2023/12/23 13:16:26;;;;;;;8.77;4.57;;;;;;;;;;5035371;28;20367;-90
2023/12/23 13:18:53;;;;;;;11.73;4.82;;;;;;;;;;5016907;28;20091;-88
2023/12/23 13:21:18;;;;;;;8.77;4.47;;;;;;;;;;4997484;28;20033;-89
2023/12/23 13:23:44;;;;;;;10.57;4.70;;;;;;;;;;5017519;28;20030;-89
2023/12/23 13:26:09;;;;;;;10.25;5.10;;;;;;;;;;4999577;28;20037;-89
2023/12/23 13:28:35;;;;;;;10.95;5.22;;;;;;;;;;5020024;28;20048;-89
2023/12/23 13:31:00;;;;;;;10.18;5.32;;;;;;;;;;5019487;28;20037;-90
2023/12/23 13:33:27;;;;;;;10.63;5.07;;;;;;;;;;4997633;28;20037;-90
2023/12/23 13:35:53;;;;;;;8.23;4.55;;;;;;;;;;5019607;28;20121;-90
2023/12/23 13:38:18;;;;;;;8.88;4.57;;;;;;;;;;5015202;28;20044;-89
2023/12/23 13:40:44;;;;;;;;;;;;;;;;;;5001708;28;20032;-89
2023/12/23 13:43:10;;;;;;;8.68;4.10;;;;;;;;;;5019210;28;20291;-89
2023/12/23 13:45:35;;;;;;;;;;;;;;;;;;5018108;28;20116;-89
2023/12/23 13:48:21;;;;;;;10.50;4.25;;;;;;;;;;5022016;28;19962;-87
2023/12/23 13:50:47;;;;;;;9.07;4.18;;;;;;;;;;4992049;28;20038;-89
2023/12/23 13:53:12;;;;;;;9.27;4.18;;;;;;;;;;5003111;28;20029;-89
2023/12/23 13:55:38;;;;;;;7.00;4.13;;;;;;;;;;5020110;28;20048;-88
2023/12/23 13:58:09;;;;;;;9.77;4.50;;;;;;;;;;5019329;28;20565;-89
2023/12/23 14:00:35;;;;;;;8.05;4.63;;;;;;;;;;5009388;28;20484;-90
2023/12/23 14:03:00;;;;;;;9.73;4.90;;;;;;;;;;5009758;28;20036;-87
2023/12/23 14:05:26;;;;;;;;;;;;;;;;;;5019779;28;20048;-88
2023/12/23 14:07:51;;;;;;;9.75;4.20;;;;;;;;;;5004858;28;19955;-89
2023/12/23 14:10:17;;;;;;;11.27;4.43;;;;;;;;;;5033088;28;20053;-88
2023/12/23 14:12:42;;;;;;;;;;;;;;;;;;5018342;28;20515;-88
2023/12/23 14:15:07;;;;;;;14.20;5.68;;;;;;;;;;5036755;28;19919;-89
2023/12/23 14:17:33;;;;;;;10.77;5.15;;;;;;;;;;5018774;28;20442;-86
2023/12/23 14:19:58;;;;;;;9.85;4.90;;;;;;;;;;5016039;28;20380;-88
2023/12/23 14:22:24;;;;;;;8.93;4.68;;;;;;;;;;5016198;28;20021;-88
2023/12/23 14:24:49;;;;;;;11.32;4.60;;;;;;;;;;5023053;28;20033;-88
2023/12/23 14:27:15;;;;;;;10.05;4.50;;;;;;;;;;5040889;28;20044;-87
2023/12/23 14:29:42;;;;;;;12.27;5.32;;;;;;;;;;4998894;28;20038;-87
2023/12/23 14:32:07;;;;;;;11.48;5.75;;;;;;;;;;5013459;28;20037;-89
2023/12/23 14:34:32;;;;;;;9.82;5.03;;;;;;;;;;5036104;28;20110;-88
2023/12/23 14:36:58;;;;;;;9.30;4.25;;;;;;;;;;5018146;28;20036;-88
2023/12/23 14:39:24;;;;;;;10.68;4.70;;;;;;;;;;5034647;28;20025;-88
2023/12/23 14:41:49;;;;;;;9.52;4.40;;;;;;;;;;5001214;28;20079;-88
2023/12/23 14:44:14;;;;;;;9.10;4.93;;;;;;;;;;5001729;28;20412;-87
2023/12/23 14:46:41;;;;;;;;;;;;;;;;;;5018277;28;20030;-88
2023/12/23 14:49:09;;;;;;;10.15;4.40;;;;;;;;;;5001932;28;19912;-88
2023/12/23 14:51:34;;;;;;;7.15;4.35;;;;;;;;;;5035548;28;20029;-88